IVC weather

Invercargill Airport
Invercargill, Southland Region, New Zealand

Public forecast

Using degrees Celsius for public forecast. Weather courtesy of forecast.io.

METAR (pilot weather report)

Closest report is Christchurch International Airport, 250.8 nm (464.5 km) NE. Retrieved 2019/03/23 01:30 UTC (28 minutes ago):

NZCH 230130Z AUTO 06008KT 020V100 9999 FEW025/// 21/14 Q1022 NOSIG

TAF (pilot weather forecast)

Forecast is more than 6 hours old.

Closest forecast is Queenstown International Airport, 85.4 nm (158.2 km) NNE. Retrieved 2019/03/22 17:13 UTC (9 hours ago):

TAF NZQN 221603Z 2217/2311 02005KT 9999 BKN030 FM222300 26010KT 9999 FEW040 BECMG 2308/2310 02005KT